Time;durP1;ratioP1;P1;durP2;ratioP2;P2;SDS_P1;SDS_P2;PMS_P1;PMS_P2;Temp;Humidity;BMP_temperature;BMP_pressure;BME280_temperature;BME280_humidity;BME280_pressure;Samples;Min_cycle;Max_cycle;Signal;HPM_P1;HPM_P2
2023/03/26 00:02:01;;;;;;;2.50;1.10;;;;;;;;;;6026064;23;20102;-78
2023/03/26 00:04:26;;;;;;;3.53;1.35;;;;;;;;;;6025784;23;20428;-78
2023/03/26 00:06:52;;;;;;;3.55;1.30;;;;;;;;;;5977857;23;20042;-78
2023/03/26 00:09:18;;;;;;;3.00;1.10;;;;;;;;;;6002432;23;20079;-78
2023/03/26 00:11:45;;;;;;;2.35;1.10;;;;;;;;;;6001680;23;20840;-78
2023/03/26 00:14:12;;;;;;;4.00;1.30;;;;;;;;;;6025365;23;20080;-78
2023/03/26 00:16:41;;;;;;;3.20;1.35;;;;;;;;;;5977718;23;20026;-78
2023/03/26 00:19:07;;;;;;;3.60;1.00;;;;;;;;;;6001645;23;20023;-79
2023/03/26 00:21:33;;;;;;;3.15;1.27;;;;;;;;;;6001851;23;20094;-78
2023/03/26 00:24:07;;;;;;;2.72;0.93;;;;;;;;;;6002722;23;20565;-78
2023/03/26 00:26:33;;;;;;;2.60;0.93;;;;;;;;;;6024893;23;20031;-79
2023/03/26 00:28:59;;;;;;;2.03;0.93;;;;;;;;;;5979821;23;20409;-78
2023/03/26 00:31:25;;;;;;;2.55;0.98;;;;;;;;;;5978429;23;20023;-78
2023/03/26 00:33:54;;;;;;;3.38;1.08;;;;;;;;;;5978882;23;20418;-78
2023/03/26 00:36:21;;;;;;;2.58;0.90;;;;;;;;;;6001940;23;20023;-78
2023/03/26 00:38:46;;;;;;;2.17;0.90;;;;;;;;;;6024006;23;20022;-78
2023/03/26 00:41:16;;;;;;;3.65;1.15;;;;;;;;;;6118118;23;20024;-77
2023/03/26 00:43:45;;;;;;;2.70;0.90;;;;;;;;;;6119002;23;20059;-76
2023/03/26 00:46:11;;;;;;;2.90;0.90;;;;;;;;;;6093958;23;20348;-79
2023/03/26 00:48:37;;;;;;;3.97;1.00;;;;;;;;;;6145216;23;20028;-79
2023/03/26 00:51:26;;;;;;;2.78;1.02;;;;;;;;;;6143793;23;20450;-78
2023/03/26 00:53:52;;;;;;;2.40;0.90;;;;;;;;;;5996988;23;20048;-80
2023/03/26 00:56:17;;;;;;;1.88;0.90;;;;;;;;;;5974209;23;20433;-79
2023/03/26 00:58:43;;;;;;;1.95;0.80;;;;;;;;;;5974225;23;20020;-79
2023/03/26 01:01:15;;;;;;;3.65;0.90;;;;;;;;;;5996931;23;20746;-79
2023/03/26 01:03:41;;;;;;;2.83;1.00;;;;;;;;;;5951264;23;20040;-79
2023/03/26 01:06:18;;;;;;;2.20;0.90;;;;;;;;;;5996531;23;20067;-79
2023/03/26 01:08:46;;;;;;;2.17;0.87;;;;;;;;;;5973988;23;20070;-79
2023/03/26 01:11:15;;;;;;;4.88;1.08;;;;;;;;;;5996765;23;20812;-79
2023/03/26 01:13:47;;;;;;;4.05;1.17;;;;;;;;;;5975723;23;20087;-79
2023/03/26 01:16:19;;;;;;;4.35;1.35;;;;;;;;;;5974273;23;20492;-79
2023/03/26 01:18:45;;;;;;;4.32;1.17;;;;;;;;;;5999037;23;20028;-80
2023/03/26 01:21:12;;;;;;;2.92;1.10;;;;;;;;;;5974285;23;20043;-79
2023/03/26 01:23:45;;;;;;;2.95;1.10;;;;;;;;;;5998847;23;20027;-79
2023/03/26 01:26:32;;;;;;;2.83;1.02;;;;;;;;;;5973839;23;20091;-80
2023/03/26 01:29:00;;;;;;;2.08;0.85;;;;;;;;;;5999414;23;20411;-79
2023/03/26 01:31:37;;;;;;;3.67;1.10;;;;;;;;;;6089453;23;20448;-80
2023/03/26 01:34:05;;;;;;;2.97;1.10;;;;;;;;;;6095896;23;20368;-79
2023/03/26 01:36:41;;;;;;;1.85;0.82;;;;;;;;;;6146394;23;20017;-80
2023/03/26 01:39:31;;;;;;;3.85;1.42;;;;;;;;;;6096153;23;20093;-79
2023/03/26 01:42:02;;;;;;;1.15;0.55;;;;;;;;;;6100466;23;20054;-80
2023/03/26 01:44:38;;;;;;;2.97;0.80;;;;;;;;;;6090931;23;20452;-80
2023/03/26 01:47:05;;;;;;;1.35;0.52;;;;;;;;;;6090204;23;20017;-80
2023/03/26 01:49:30;;;;;;;2.15;0.77;;;;;;;;;;6066745;23;20025;-80
2023/03/26 01:51:56;;;;;;;2.05;0.80;;;;;;;;;;6089224;23;20014;-80
2023/03/26 01:54:24;;;;;;;4.40;1.00;;;;;;;;;;6090376;23;20481;-80
2023/03/26 01:56:56;;;;;;;1.98;0.93;;;;;;;;;;6065888;23;20344;-80
2023/03/26 01:59:34;;;;;;;1.80;0.80;;;;;;;;;;6090149;23;20096;-80
2023/03/26 02:02:44;;;;;;;2.00;0.98;;;;;;;;;;6090626;23;20024;-80
2023/03/26 02:05:25;;;;;;;3.58;1.30;;;;;;;;;;6042973;23;20468;-80
2023/03/26 02:08:21;;;;;;;2.80;1.10;;;;;;;;;;6115622;23;20096;-79
2023/03/26 02:10:50;;;;;;;3.45;1.00;;;;;;;;;;6114805;23;20298;-79
2023/03/26 02:13:16;;;;;;;2.08;0.80;;;;;;;;;;6090722;23;20503;-80
2023/03/26 02:15:54;;;;;;;1.95;0.80;;;;;;;;;;6115557;23;20069;-79
2023/03/26 02:18:22;;;;;;;1.75;0.80;;;;;;;;;;6116352;23;20020;-79
2023/03/26 02:20:54;;;;;;;1.52;0.70;;;;;;;;;;6114845;23;20025;-79
2023/03/26 02:23:20;;;;;;;1.45;0.70;;;;;;;;;;6090813;23;20021;-80
2023/03/26 02:25:46;;;;;;;1.48;0.70;;;;;;;;;;6089351;23;20021;-79
2023/03/26 02:28:12;;;;;;;2.20;0.93;;;;;;;;;;6090738;23;20018;-79
2023/03/26 02:30:38;;;;;;;2.70;0.80;;;;;;;;;;6089402;23;20009;-79
2023/03/26 02:33:04;;;;;;;2.53;0.90;;;;;;;;;;6115737;23;20448;-79
2023/03/26 02:35:29;;;;;;;2.78;1.10;;;;;;;;;;6090186;23;20014;-79
2023/03/26 02:37:55;;;;;;;4.80;1.27;;;;;;;;;;6090402;23;20024;-79
2023/03/26 02:40:21;;;;;;;2.65;1.10;;;;;;;;;;6115287;23;20289;-79
2023/03/26 02:42:47;;;;;;;4.30;1.38;;;;;;;;;;6095279;23;20486;-79
2023/03/26 02:45:13;;;;;;;2.67;1.40;;;;;;;;;;6118586;23;20021;-79
2023/03/26 02:47:38;;;;;;;3.78;1.35;;;;;;;;;;6118876;23;20018;-80
2023/03/26 02:50:04;;;;;;;4.53;1.17;;;;;;;;;;6144849;23;20382;-79
2023/03/26 02:52:29;;;;;;;3.35;1.55;;;;;;;;;;6095310;23;20009;-79
2023/03/26 02:54:55;;;;;;;5.10;1.30;;;;;;;;;;6145681;23;20337;-79
2023/03/26 02:57:21;;;;;;;3.38;1.58;;;;;;;;;;6117994;23;20623;-79
2023/03/26 02:59:51;;;;;;;2.97;1.60;;;;;;;;;;6118716;23;20022;-79
2023/03/26 03:02:17;;;;;;;3.90;1.33;;;;;;;;;;6118562;23;20017;-79
2023/03/26 03:04:42;;;;;;;4.22;1.63;;;;;;;;;;6119150;23;20316;-79
2023/03/26 03:07:08;;;;;;;2.75;1.30;;;;;;;;;;6119632;23;20033;-79
2023/03/26 03:09:33;;;;;;;2.58;1.40;;;;;;;;;;6143926;23;20088;-79
2023/03/26 03:11:59;;;;;;;4.13;1.45;;;;;;;;;;6119121;23;20436;-79
2023/03/26 03:14:25;;;;;;;2.70;1.20;;;;;;;;;;6119474;23;20042;-79
2023/03/26 03:17:10;;;;;;;3.22;1.20;;;;;;;;;;6143616;23;20072;-80
2023/03/26 03:19:36;;;;;;;2.45;1.17;;;;;;;;;;6053659;23;20034;-79
2023/03/26 03:22:02;;;;;;;2.67;1.27;;;;;;;;;;6054120;23;20469;-79
2023/03/26 03:24:27;;;;;;;3.17;1.27;;;;;;;;;;6007464;23;20081;-80
2023/03/26 03:26:56;;;;;;;2.35;1.10;;;;;;;;;;6052478;23;20023;-79
2023/03/26 03:29:22;;;;;;;3.53;1.30;;;;;;;;;;6055457;23;21025;-79
2023/03/26 03:31:48;;;;;;;3.00;1.20;;;;;;;;;;6052697;23;20027;-79
2023/03/26 03:34:13;;;;;;;4.38;1.60;;;;;;;;;;6054742;23;20452;-79
2023/03/26 03:36:38;;;;;;;4.47;1.65;;;;;;;;;;6053876;23;20026;-80
2023/03/26 03:39:04;;;;;;;5.88;1.60;;;;;;;;;;6054114;23;20368;-80
2023/03/26 03:41:29;;;;;;;5.70;1.40;;;;;;;;;;6040820;23;20042;-79
2023/03/26 03:43:55;;;;;;;3.72;1.40;;;;;;;;;;6025417;23;20090;-79
2023/03/26 03:46:20;;;;;;;4.25;1.52;;;;;;;;;;6025499;23;20029;-79
2023/03/26 03:48:49;;;;;;;5.78;1.50;;;;;;;;;;6003013;23;20034;-79
2023/03/26 03:51:17;;;;;;;3.47;1.30;;;;;;;;;;6025243;23;20027;-80
2023/03/26 03:53:44;;;;;;;4.20;1.38;;;;;;;;;;6001873;23;20098;-80
2023/03/26 03:56:10;;;;;;;;;;;;;;;;;;6053340;23;20044;-79
2023/03/26 03:58:38;;;;;;;2.33;1.00;;;;;;;;;;6089557;23;19908;-80
2023/03/26 04:01:03;;;;;;;3.40;1.20;;;;;;;;;;6064105;23;20526;-79
2023/03/26 04:03:29;;;;;;;3.70;1.40;;;;;;;;;;6090783;23;20018;-80
2023/03/26 04:05:55;;;;;;;3.88;1.30;;;;;;;;;;6088729;23;20017;-80
2023/03/26 04:08:21;;;;;;;3.38;1.25;;;;;;;;;;6115459;23;20041;-78
2023/03/26 04:10:47;;;;;;;3.92;1.27;;;;;;;;;;6064730;23;20018;-79
2023/03/26 04:13:21;;;;;;;5.80;1.08;;;;;;;;;;6064046;23;20014;-80
2023/03/26 04:15:46;;;;;;;5.82;1.33;;;;;;;;;;6113685;23;20072;-79
2023/03/26 04:18:12;;;;;;;2.63;1.23;;;;;;;;;;6114427;23;20428;-80
2023/03/26 04:20:45;;;;;;;4.32;1.30;;;;;;;;;;6064367;23;20536;-79
2023/03/26 04:23:13;;;;;;;2.92;1.20;;;;;;;;;;6065890;23;20018;-80
2023/03/26 04:25:52;;;;;;;2.97;1.35;;;;;;;;;;6088330;23;20391;-80
2023/03/26 04:28:30;;;;;;;3.97;1.33;;;;;;;;;;6115943;23;20014;-79
2023/03/26 04:30:59;;;;;;;3.42;1.10;;;;;;;;;;6065185;23;20024;-79
2023/03/26 04:33:27;;;;;;;4.03;1.40;;;;;;;;;;6089774;23;20376;-78
2023/03/26 04:35:53;;;;;;;3.17;1.23;;;;;;;;;;6089026;23;20022;-79
2023/03/26 04:38:18;;;;;;;2.05;0.95;;;;;;;;;;6090445;23;20017;-78
2023/03/26 04:40:46;;;;;;;2.00;0.85;;;;;;;;;;6119466;23;20073;-79
2023/03/26 04:43:13;;;;;;;2.40;1.17;;;;;;;;;;6119082;23;20084;-79
2023/03/26 04:45:38;;;;;;;3.90;1.23;;;;;;;;;;6118124;23;20092;-79
2023/03/26 04:48:06;;;;;;;3.30;0.95;;;;;;;;;;6120911;23;20131;-79
2023/03/26 04:50:31;;;;;;;3.90;1.00;;;;;;;;;;6096302;23;20014;-80
2023/03/26 04:52:57;;;;;;;2.80;1.20;;;;;;;;;;6120590;23;20041;-79
2023/03/26 04:55:30;;;;;;;4.38;1.35;;;;;;;;;;6095422;23;20017;-79
2023/03/26 04:58:04;;;;;;;4.75;1.30;;;;;;;;;;6120490;23;20028;-79
2023/03/26 05:00:29;;;;;;;2.47;1.02;;;;;;;;;;6121554;23;20404;-79
2023/03/26 05:02:56;;;;;;;3.90;1.33;;;;;;;;;;6120345;23;20017;-79
2023/03/26 05:05:22;;;;;;;2.92;1.38;;;;;;;;;;6146536;23;20028;-79
2023/03/26 05:07:48;;;;;;;2.60;1.10;;;;;;;;;;6120423;23;20321;-79
2023/03/26 05:10:15;;;;;;;3.83;1.20;;;;;;;;;;6146886;23;20020;-79
2023/03/26 05:12:43;;;;;;;2.85;1.00;;;;;;;;;;6119791;23;20450;-79
2023/03/26 05:15:10;;;;;;;3.08;1.20;;;;;;;;;;6119340;23;20052;-79
2023/03/26 05:17:40;;;;;;;3.80;0.90;;;;;;;;;;6120750;23;20088;-78
2023/03/26 05:20:28;;;;;;;3.78;1.17;;;;;;;;;;6146051;23;20492;-79
2023/03/26 05:22:54;;;;;;;4.07;1.10;;;;;;;;;;6105029;23;20093;-80
2023/03/26 05:25:23;;;;;;;2.38;1.05;;;;;;;;;;6119055;23;20018;-79
2023/03/26 05:27:51;;;;;;;4.10;1.35;;;;;;;;;;6095410;23;20025;-80
2023/03/26 05:30:19;;;;;;;2.97;0.93;;;;;;;;;;6119146;23;20017;-79
2023/03/26 05:32:46;;;;;;;;;;;;;;;;;;6119999;23;20092;-79
2023/03/26 05:35:11;;;;;;;2.97;0.95;;;;;;;;;;6145979;23;20342;-79
2023/03/26 05:37:37;;;;;;;5.18;1.35;;;;;;;;;;6146007;23;20037;-79
2023/03/26 05:40:11;;;;;;;4.15;1.23;;;;;;;;;;6096189;23;20092;-79
2023/03/26 05:42:37;;;;;;;3.15;1.05;;;;;;;;;;6095924;23;20374;-80
2023/03/26 05:45:04;;;;;;;5.50;1.15;;;;;;;;;;6095916;23;20018;-79
2023/03/26 05:47:30;;;;;;;3.03;1.23;;;;;;;;;;6095390;23;20471;-79
2023/03/26 05:49:56;;;;;;;4.25;1.17;;;;;;;;;;6120113;23;20734;-79
2023/03/26 05:52:21;;;;;;;6.05;1.38;;;;;;;;;;6094731;23;20013;-79
2023/03/26 05:54:49;;;;;;;5.47;1.35;;;;;;;;;;6095581;23;20021;-79
2023/03/26 05:57:15;;;;;;;6.82;1.02;;;;;;;;;;6120529;23;20399;-80
2023/03/26 05:59:43;;;;;;;4.90;1.15;;;;;;;;;;6145825;23;20149;-79
2023/03/26 06:02:09;;;;;;;3.97;1.13;;;;;;;;;;6118684;23;20048;-80
2023/03/26 06:04:39;;;;;;;3.13;1.15;;;;;;;;;;6119621;23;20013;-80
2023/03/26 06:07:08;;;;;;;2.90;1.10;;;;;;;;;;6120375;23;20444;-79
2023/03/26 06:09:44;;;;;;;7.43;1.85;;;;;;;;;;6095386;23;20020;-78
2023/03/26 06:12:10;;;;;;;2.58;1.00;;;;;;;;;;6145226;23;20482;-79
2023/03/26 06:14:36;;;;;;;5.32;1.20;;;;;;;;;;6119599;23;20013;-80
2023/03/26 06:17:01;;;;;;;2.30;0.90;;;;;;;;;;6095479;23;20756;-79
2023/03/26 06:19:27;;;;;;;4.22;1.27;;;;;;;;;;6145601;23;20013;-80
2023/03/26 06:22:11;;;;;;;4.05;1.02;;;;;;;;;;6118755;23;20021;-79
2023/03/26 06:24:36;;;;;;;4.30;1.13;;;;;;;;;;6145219;23;20404;-79
2023/03/26 06:27:01;;;;;;;4.03;1.10;;;;;;;;;;6119311;23;20017;-80
2023/03/26 06:29:27;;;;;;;2.33;0.95;;;;;;;;;;6118928;23;20029;-80
2023/03/26 06:31:52;;;;;;;4.47;1.20;;;;;;;;;;6145181;23;20367;-80
2023/03/26 06:34:18;;;;;;;3.67;1.00;;;;;;;;;;6094749;23;20013;-80
2023/03/26 06:36:43;;;;;;;4.05;1.00;;;;;;;;;;6145232;23;20022;-80
2023/03/26 06:39:09;;;;;;;4.80;1.25;;;;;;;;;;6118481;23;20016;-80
2023/03/26 06:41:34;;;;;;;3.20;1.08;;;;;;;;;;6117756;23;20032;-79
2023/03/26 06:44:06;;;;;;;1.98;0.70;;;;;;;;;;6118441;23;20092;-79
2023/03/26 06:46:31;;;;;;;2.83;0.77;;;;;;;;;;6144147;23;20145;-80
2023/03/26 06:48:57;;;;;;;4.78;0.80;;;;;;;;;;6118261;23;20041;-80
2023/03/26 06:51:22;;;;;;;2.38;0.80;;;;;;;;;;6093625;23;20064;-80
2023/03/26 06:54:06;;;;;;;3.10;0.90;;;;;;;;;;6144591;23;20017;-79
2023/03/26 06:56:31;;;;;;;2.60;0.90;;;;;;;;;;6116789;23;20024;-79
2023/03/26 06:58:57;;;;;;;1.80;0.70;;;;;;;;;;6093833;23;20100;-79
2023/03/26 07:01:22;;;;;;;1.92;0.70;;;;;;;;;;6141359;23;20021;-85
2023/03/26 07:03:50;;;;;;;5.82;1.00;;;;;;;;;;6101124;23;20096;-84
2023/03/26 07:06:16;;;;;;;5.70;1.00;;;;;;;;;;6086179;23;20785;-85
2023/03/26 07:08:41;;;;;;;1.55;0.80;;;;;;;;;;6129226;23;20017;-85
2023/03/26 07:11:10;;;;;;;4.20;0.98;;;;;;;;;;6125587;23;20309;-84
2023/03/26 07:13:36;;;;;;;3.85;0.80;;;;;;;;;;6096392;23;20021;-83
2023/03/26 07:16:02;;;;;;;1.77;0.80;;;;;;;;;;6103177;23;20093;-84
2023/03/26 07:18:27;;;;;;;2.60;0.70;;;;;;;;;;6125862;23;20383;-83
2023/03/26 07:20:53;;;;;;;1.65;0.65;;;;;;;;;;6103082;23;20051;-85
2023/03/26 07:23:20;;;;;;;1.50;0.60;;;;;;;;;;6123941;23;20025;-84
2023/03/26 07:25:47;;;;;;;2.60;0.60;;;;;;;;;;6101540;23;20017;-84
2023/03/26 07:28:29;;;;;;;1.83;0.70;;;;;;;;;;6077167;23;20084;-84
2023/03/26 07:31:10;;;;;;;3.08;0.73;;;;;;;;;;6124190;23;20013;-85
2023/03/26 07:33:46;;;;;;;4.68;0.70;;;;;;;;;;6126564;23;20022;-84
2023/03/26 07:36:24;;;;;;;4.75;0.80;;;;;;;;;;6117231;23;20481;-80
2023/03/26 07:39:05;;;;;;;3.15;0.75;;;;;;;;;;6117800;23;20031;-80
2023/03/26 07:41:48;;;;;;;2.90;0.90;;;;;;;;;;6097129;23;1120500;-80
2023/03/26 07:44:22;;;;;;;2.08;0.80;;;;;;;;;;6144397;23;20025;-80
2023/03/26 07:46:52;;;;;;;1.45;0.60;;;;;;;;;;6117967;23;20017;-80
2023/03/26 07:49:18;;;;;;;2.63;0.80;;;;;;;;;;6119682;23;20378;-79
2023/03/26 07:51:44;;;;;;;3.00;0.60;;;;;;;;;;6126669;23;20021;-85
2023/03/26 07:54:13;;;;;;;4.20;0.80;;;;;;;;;;6130783;23;20443;-84
2023/03/26 07:56:50;;;;;;;6.95;0.90;;;;;;;;;;6146464;23;20343;-84
2023/03/26 07:59:26;;;;;;;2.33;0.70;;;;;;;;;;6118512;23;20033;-85
2023/03/26 08:02:16;;;;;;;1.70;0.70;;;;;;;;;;6119235;23;20036;-84
2023/03/26 08:05:18;;;;;;;3.50;0.93;;;;;;;;;;6144529;23;20018;-84
2023/03/26 08:08:44;;;;;;;3.47;1.23;;;;;;;;;;6145120;23;20057;-85
2023/03/26 08:11:47;;;;;;;2.13;0.85;;;;;;;;;;6053471;23;20523;-84
2023/03/26 08:14:37;;;;;;;5.80;0.90;;;;;;;;;;6053909;23;20556;-85
2023/03/26 08:17:27;;;;;;;3.83;1.00;;;;;;;;;;6074282;23;20022;-85
2023/03/26 08:20:30;;;;;;;2.55;0.93;;;;;;;;;;6083749;23;20128;-85
2023/03/26 08:23:20;;;;;;;4.28;0.82;;;;;;;;;;6085492;23;20451;-85
2023/03/26 08:25:58;;;;;;;2.75;1.08;;;;;;;;;;6059650;23;20097;-84
2023/03/26 08:28:38;;;;;;;1.95;0.70;;;;;;;;;;6058897;23;20022;-83
2023/03/26 08:31:04;;;;;;;3.53;0.98;;;;;;;;;;6083862;23;20714;-84
2023/03/26 08:33:31;;;;;;;4.78;0.90;;;;;;;;;;6086052;23;20020;-84
2023/03/26 08:35:56;;;;;;;4.47;0.80;;;;;;;;;;6061438;23;20018;-84
2023/03/26 08:38:22;;;;;;;3.25;1.10;;;;;;;;;;6085476;23;20205;-83
2023/03/26 08:41:09;;;;;;;3.65;1.00;;;;;;;;;;6061688;23;20064;-84
2023/03/26 08:44:12;;;;;;;2.15;0.88;;;;;;;;;;6121368;23;20083;-86
2023/03/26 08:46:56;;;;;;;4.22;0.90;;;;;;;;;;6122437;23;20444;-84
2023/03/26 08:49:42;;;;;;;2.80;0.95;;;;;;;;;;6121474;23;20383;-84
2023/03/26 08:52:11;;;;;;;4.57;1.17;;;;;;;;;;6146495;23;20052;-83
2023/03/26 08:54:39;;;;;;;4.43;1.00;;;;;;;;;;6146336;23;20483;-84
2023/03/26 08:57:26;;;;;;;6.40;1.20;;;;;;;;;;6120054;23;20475;-82
2023/03/26 09:00:12;;;;;;;3.53;1.27;;;;;;;;;;6146042;23;20021;-83
2023/03/26 09:03:11;;;;;;;3.90;1.27;;;;;;;;;;6119957;23;20022;-83
2023/03/26 09:05:48;;;;;;;4.55;0.95;;;;;;;;;;6119626;23;20021;-84
2023/03/26 09:08:34;;;;;;;6.22;1.10;;;;;;;;;;6121611;23;20024;-85
2023/03/26 09:11:36;;;;;;;3.45;1.00;;;;;;;;;;6095821;23;20463;-85
2023/03/26 09:14:13;;;;;;;4.70;1.00;;;;;;;;;;6146301;23;20092;-83
2023/03/26 09:17:07;;;;;;;1.88;0.77;;;;;;;;;;6145878;23;20017;-81
2023/03/26 09:19:44;;;;;;;2.58;0.85;;;;;;;;;;6119413;23;20615;-81
2023/03/26 09:22:15;;;;;;;2.38;0.90;;;;;;;;;;6120248;23;20017;-82
2023/03/26 09:24:58;;;;;;;3.35;0.85;;;;;;;;;;6146529;23;20383;-82
2023/03/26 09:27:59;;;;;;;2.92;0.75;;;;;;;;;;6145019;23;20028;-81
2023/03/26 09:30:43;;;;;;;3.38;0.85;;;;;;;;;;6080138;23;20387;-82
2023/03/26 09:33:36;;;;;;;4.72;0.85;;;;;;;;;;6146168;23;20017;-82
2023/03/26 09:36:20;;;;;;;2.90;0.80;;;;;;;;;;6145483;23;20018;-82
2023/03/26 09:38:53;;;;;;;4.45;1.25;;;;;;;;;;6146141;23;20090;-80
2023/03/26 09:41:42;;;;;;;4.50;0.90;;;;;;;;;;6093658;23;20467;-81
2023/03/26 09:44:23;;;;;;;3.17;1.08;;;;;;;;;;6095479;23;20025;-81
2023/03/26 09:47:30;;;;;;;2.53;0.90;;;;;;;;;;6145990;23;20021;-82
2023/03/26 09:50:17;;;;;;;2.97;0.77;;;;;;;;;;6050902;23;20013;-81
2023/03/26 09:53:10;;;;;;;2.33;0.70;;;;;;;;;;6118572;23;20009;-82
2023/03/26 09:55:57;;;;;;;3.80;0.82;;;;;;;;;;6119252;23;20073;-81
2023/03/26 09:58:22;;;;;;;1.65;0.60;;;;;;;;;;6145813;23;20072;-81
2023/03/26 10:01:30;;;;;;;5.38;0.77;;;;;;;;;;6144332;23;20029;-81
2023/03/26 10:04:21;;;;;;;2.75;0.93;;;;;;;;;;6144754;23;20475;-81
2023/03/26 10:07:23;;;;;;;1.88;0.75;;;;;;;;;;6144649;23;20026;-80
2023/03/26 10:09:54;;;;;;;5.72;1.65;;;;;;;;;;6146027;23;20021;-80
2023/03/26 10:12:38;;;;;;;3.80;0.93;;;;;;;;;;6093636;23;20017;-82
2023/03/26 10:15:20;;;;;;;3.70;1.15;;;;;;;;;;6106386;23;20013;-82
2023/03/26 10:18:10;;;;;;;4.22;0.98;;;;;;;;;;6112789;23;20571;-84
2023/03/26 10:21:20;;;;;;;3.60;0.98;;;;;;;;;;6104930;23;20013;-81
2023/03/26 10:24:00;;;;;;;4.57;1.00;;;;;;;;;;6086017;23;20025;-84
2023/03/26 10:26:50;;;;;;;2.17;0.75;;;;;;;;;;6145218;23;20018;-83
2023/03/26 10:30:00;;;;;;;4.57;0.75;;;;;;;;;;6119834;23;20009;-81
2023/03/26 10:32:48;;;;;;;3.60;0.90;;;;;;;;;;6025974;23;20485;-81
2023/03/26 10:35:19;;;;;;;3.10;0.90;;;;;;;;;;6090147;23;20025;-80
2023/03/26 10:38:07;;;;;;;4.40;0.93;;;;;;;;;;6118969;23;20022;-80
2023/03/26 10:40:53;;;;;;;2.88;0.70;;;;;;;;;;6119010;23;20022;-82
2023/03/26 10:43:40;;;;;;;1.90;0.60;;;;;;;;;;6145192;23;20045;-81
2023/03/26 10:46:30;;;;;;;2.97;0.90;;;;;;;;;;6144934;23;20069;-83
2023/03/26 10:49:07;;;;;;;2.78;0.80;;;;;;;;;;6145289;23;20006;-82
2023/03/26 10:51:49;;;;;;;2.17;0.60;;;;;;;;;;6145627;23;20464;-82
2023/03/26 10:54:42;;;;;;;1.88;0.70;;;;;;;;;;6119116;23;20018;-82
2023/03/26 10:57:17;;;;;;;2.00;0.80;;;;;;;;;;6144690;23;20355;-81
2023/03/26 10:59:43;;;;;;;3.92;0.98;;;;;;;;;;6119083;23;20395;-80
2023/03/26 11:02:25;;;;;;;2.92;0.73;;;;;;;;;;6118320;23;20048;-81
2023/03/26 11:04:59;;;;;;;4.15;0.68;;;;;;;;;;6143995;23;20025;-82
2023/03/26 11:07:34;;;;;;;1.58;0.50;;;;;;;;;;6118919;23;20451;-82
2023/03/26 11:10:07;;;;;;;4.05;0.77;;;;;;;;;;6145255;23;20020;-81
2023/03/26 11:12:42;;;;;;;5.78;1.05;;;;;;;;;;6118630;23;20141;-81
2023/03/26 11:15:23;;;;;;;2.15;0.70;;;;;;;;;;6144899;23;20024;-82
2023/03/26 11:18:03;;;;;;;3.88;0.95;;;;;;;;;;6119433;23;20037;-81
2023/03/26 11:20:42;;;;;;;4.68;0.70;;;;;;;;;;6144678;23;20018;-81
2023/03/26 11:23:36;;;;;;;2.22;0.60;;;;;;;;;;6094723;23;20359;-83
2023/03/26 11:26:02;;;;;;;2.78;0.70;;;;;;;;;;6094952;23;20048;-82
2023/03/26 11:28:46;;;;;;;1.77;0.63;;;;;;;;;;6119075;23;20017;-83
2023/03/26 11:31:36;;;;;;;4.20;0.88;;;;;;;;;;6144152;23;20443;-83
2023/03/26 11:34:07;;;;;;;1.67;0.60;;;;;;;;;;6145068;23;20041;-83
2023/03/26 11:36:37;;;;;;;1.77;0.50;;;;;;;;;;6119045;23;20045;-81
2023/03/26 11:39:07;;;;;;;4.03;0.95;;;;;;;;;;6145188;23;20100;-82
2023/03/26 11:41:33;;;;;;;4.32;1.05;;;;;;;;;;6091093;23;20345;-81
2023/03/26 11:44:20;;;;;;;2.83;0.70;;;;;;;;;;6119485;23;20075;-83
2023/03/26 11:46:47;;;;;;;2.65;0.73;;;;;;;;;;6143606;23;20018;-82
2023/03/26 11:49:16;;;;;;;3.15;1.08;;;;;;;;;;6094130;23;20092;-82
2023/03/26 11:51:46;;;;;;;4.85;0.82;;;;;;;;;;6094347;23;20028;-82
2023/03/26 11:54:14;;;;;;;5.40;1.20;;;;;;;;;;6118043;23;20021;-82
2023/03/26 11:56:54;;;;;;;2.55;0.60;;;;;;;;;;6093948;23;20020;-82
2023/03/26 11:59:23;;;;;;;3.05;0.85;;;;;;;;;;6119663;23;20071;-83
2023/03/26 12:01:56;;;;;;;1.90;0.77;;;;;;;;;;6094463;23;20076;-82
2023/03/26 12:04:39;;;;;;;3.45;0.80;;;;;;;;;;6118638;23;20360;-81
2023/03/26 12:07:15;;;;;;;2.65;0.77;;;;;;;;;;6117838;23;20052;-82
2023/03/26 12:09:57;;;;;;;2.10;0.73;;;;;;;;;;6144849;23;20021;-82
2023/03/26 12:12:36;;;;;;;4.07;0.65;;;;;;;;;;6102480;23;20024;-82
2023/03/26 12:15:01;;;;;;;2.50;0.63;;;;;;;;;;6119134;23;20019;-82
2023/03/26 12:17:32;;;;;;;1.60;0.60;;;;;;;;;;6117919;23;20018;-81
2023/03/26 12:19:59;;;;;;;2.03;0.60;;;;;;;;;;6094882;23;20009;-82
2023/03/26 12:22:34;;;;;;;2.37;0.63;;;;;;;;;;6117861;23;20089;-82
2023/03/26 12:25:27;;;;;;;3.75;0.50;;;;;;;;;;6120039;23;20017;-82
2023/03/26 12:28:04;;;;;;;1.98;0.60;;;;;;;;;;6118205;23;20120;-81
2023/03/26 12:30:36;;;;;;;1.90;0.80;;;;;;;;;;6144357;23;20013;-82
2023/03/26 12:33:27;;;;;;;1.80;0.60;;;;;;;;;;6119012;23;20013;-82
2023/03/26 12:35:55;;;;;;;3.05;0.60;;;;;;;;;;6117031;23;20031;-80
2023/03/26 12:38:32;;;;;;;2.10;0.50;;;;;;;;;;6094545;23;20025;-82
2023/03/26 12:41:14;;;;;;;;;;;;;;;;;;6093949;23;20017;-83
2023/03/26 12:43:49;;;;;;;1.35;0.43;;;;;;;;;;6167269;23;20306;-82
2023/03/26 12:46:33;;;;;;;1.15;0.38;;;;;;;;;;6118151;23;20014;-80
2023/03/26 12:49:01;;;;;;;1.88;0.32;;;;;;;;;;6118512;23;20023;-82
2023/03/26 12:51:50;;;;;;;2.35;0.60;;;;;;;;;;6119348;23;20424;-82
2023/03/26 12:54:41;;;;;;;1.00;0.40;;;;;;;;;;6122346;23;20459;-84
2023/03/26 12:57:21;;;;;;;2.53;0.70;;;;;;;;;;6129103;23;20606;-84
2023/03/26 12:59:47;;;;;;;1.48;0.40;;;;;;;;;;6105948;23;20025;-83
2023/03/26 13:02:37;;;;;;;1.10;0.40;;;;;;;;;;6144351;23;20354;-84
2023/03/26 13:05:31;;;;;;;2.85;0.52;;;;;;;;;;6139225;23;20028;-84
2023/03/26 13:08:21;;;;;;;1.45;0.50;;;;;;;;;;6145719;23;20048;-84
2023/03/26 13:10:57;;;;;;;4.28;0.80;;;;;;;;;;6146048;23;20021;-83
2023/03/26 13:13:44;;;;;;;4.28;0.70;;;;;;;;;;6146048;23;20072;-83
2023/03/26 13:16:24;;;;;;;2.03;0.70;;;;;;;;;;6145823;23;20463;-84
2023/03/26 13:18:54;;;;;;;2.63;0.60;;;;;;;;;;6120932;23;20058;-83
2023/03/26 13:21:28;;;;;;;2.25;0.57;;;;;;;;;;6119436;23;20108;-84
2023/03/26 13:24:12;;;;;;;2.38;0.70;;;;;;;;;;6146494;23;20148;-84
2023/03/26 13:26:59;;;;;;;2.53;0.50;;;;;;;;;;6145906;23;20348;-83
2023/03/26 13:29:24;;;;;;;2.00;0.50;;;;;;;;;;6146085;23;20096;-83
2023/03/26 13:32:21;;;;;;;1.85;0.50;;;;;;;;;;6120051;23;20527;-84
2023/03/26 13:34:55;;;;;;;1.92;0.50;;;;;;;;;;6119995;23;20071;-83
2023/03/26 13:37:32;;;;;;;2.85;0.80;;;;;;;;;;6118484;23;20147;-82
2023/03/26 13:40:16;;;;;;;1.33;0.40;;;;;;;;;;6146451;23;20013;-82
2023/03/26 13:42:47;;;;;;;4.15;0.60;;;;;;;;;;6117440;23;20738;-83
2023/03/26 13:45:55;;;;;;;2.10;0.60;;;;;;;;;;6117952;23;20531;-82
2023/03/26 13:48:31;;;;;;;3.10;0.70;;;;;;;;;;6120559;23;20088;-82
2023/03/26 13:51:04;;;;;;;2.60;0.70;;;;;;;;;;6119871;23;20351;-82
2023/03/26 13:53:40;;;;;;;2.17;0.52;;;;;;;;;;6146521;23;20084;-82
2023/03/26 13:56:12;;;;;;;1.27;0.50;;;;;;;;;;6119410;23;20022;-82
2023/03/26 13:58:45;;;;;;;1.20;0.50;;;;;;;;;;6119195;23;20344;-82
2023/03/26 14:01:21;;;;;;;2.85;0.60;;;;;;;;;;6120117;23;20024;-81
2023/03/26 14:03:55;;;;;;;1.42;0.60;;;;;;;;;;6145403;23;20431;-80
2023/03/26 14:06:29;;;;;;;2.75;0.98;;;;;;;;;;6120202;23;20084;-79
2023/03/26 14:09:03;;;;;;;1.77;0.65;;;;;;;;;;6119590;23;20431;-79
2023/03/26 14:11:55;;;;;;;2.22;0.55;;;;;;;;;;6119652;23;20451;-79
2023/03/26 14:14:43;;;;;;;5.30;0.70;;;;;;;;;;6068124;23;20028;-81
2023/03/26 14:17:21;;;;;;;1.55;0.50;;;;;;;;;;6119282;23;20028;-81
2023/03/26 14:20:08;;;;;;;3.38;0.55;;;;;;;;;;6118560;23;20018;-81
2023/03/26 14:22:36;;;;;;;2.38;0.68;;;;;;;;;;6145568;23;20021;-81
2023/03/26 14:25:07;;;;;;;3.25;0.82;;;;;;;;;;6119794;23;20436;-82
2023/03/26 14:27:50;;;;;;;4.78;0.65;;;;;;;;;;6146133;23;20021;-82
2023/03/26 14:30:30;;;;;;;1.95;0.60;;;;;;;;;;6094113;23;20448;-81
2023/03/26 14:33:34;;;;;;;2.70;0.70;;;;;;;;;;6118089;23;20021;-81
2023/03/26 14:36:33;;;;;;;1.98;0.65;;;;;;;;;;6119273;23;20526;-81
2023/03/26 14:39:21;;;;;;;1.70;0.57;;;;;;;;;;6118596;23;20508;-81
2023/03/26 14:41:52;;;;;;;2.83;0.75;;;;;;;;;;6143741;23;20044;-80
2023/03/26 14:44:36;;;;;;;3.28;0.82;;;;;;;;;;6143238;23;20167;-81
2023/03/26 14:47:16;;;;;;;2.03;0.80;;;;;;;;;;6117829;23;20036;-80
2023/03/26 14:49:54;;;;;;;2.78;0.88;;;;;;;;;;6116325;23;20056;-80
2023/03/26 14:52:26;;;;;;;2.40;0.80;;;;;;;;;;6115732;23;20021;-80
2023/03/26 14:54:52;;;;;;;3.35;0.77;;;;;;;;;;6117655;23;20022;-81
2023/03/26 14:57:46;;;;;;;4.30;1.02;;;;;;;;;;6115786;23;20447;-80
2023/03/26 15:00:24;;;;;;;2.65;1.02;;;;;;;;;;6142336;23;20071;-80
2023/03/26 15:03:08;;;;;;;3.65;1.10;;;;;;;;;;6116523;23;20478;-81
2023/03/26 15:06:21;;;;;;;2.25;0.60;;;;;;;;;;6121743;23;20884;-81
2023/03/26 15:09:24;;;;;;;2.00;0.50;;;;;;;;;;5992596;23;20024;-81
2023/03/26 15:12:29;;;;;;;3.00;0.90;;;;;;;;;;5995316;23;20423;-81
2023/03/26 15:15:35;;;;;;;2.17;0.70;;;;;;;;;;6138969;23;20101;-82
2023/03/26 15:18:37;;;;;;;2.53;0.98;;;;;;;;;;6117333;23;20025;-82
2023/03/26 15:21:29;;;;;;;2.22;0.52;;;;;;;;;;6092523;23;20018;-82
2023/03/26 15:24:04;;;;;;;2.13;0.63;;;;;;;;;;6142932;23;20093;-82
2023/03/26 15:26:44;;;;;;;2.15;0.50;;;;;;;;;;6142083;23;20463;-82
2023/03/26 15:29:41;;;;;;;3.85;0.70;;;;;;;;;;6109944;23;20522;-82
2023/03/26 15:32:24;;;;;;;4.05;0.75;;;;;;;;;;6142449;23;20131;-82